Time;durP1;ratioP1;P1;durP2;ratioP2;P2;SDS_P1;SDS_P2;PMS_P1;PMS_P2;Temp;Humidity;BMP_temperature;BMP_pressure;BME280_temperature;BME280_humidity;BME280_pressure;Samples;Min_cycle;Max_cycle;Signal;HPM_P1;HPM_P2
2021/07/15 05:32:33;;;;;;;70.85;66.37;;;;;;;23.48;69.51;100006.53;1751495;80;26284;-66
2021/07/15 05:35:00;;;;;;;71.50;67.03;;;;;;;23.54;69.20;99985.41;1718652;81;25761;-67
2021/07/15 05:37:27;;;;;;;71.53;67.32;;;;;;;23.57;69.21;99972.18;1719288;80;25817;-67
2021/07/15 05:39:54;;;;;;;71.65;66.45;;;;;;;23.58;69.18;99969.59;1746300;79;26538;-66
2021/07/15 05:42:22;;;;;;;70.17;65.97;;;;;;;23.64;69.18;99961.08;1723112;81;25468;-66
2021/07/15 05:44:50;;;;;;;68.30;63.95;;;;;;;23.71;68.64;99960.23;1725852;80;27323;-66
2021/07/15 05:47:16;;;;;;;67.83;63.93;;;;;;;23.75;68.62;99959.03;1737779;80;26355;-67
2021/07/15 05:49:44;;;;;;;69.60;65.25;;;;;;;23.84;68.53;99966.88;1754878;80;25730;-66
2021/07/15 05:52:12;;;;;;;68.33;64.15;;;;;;;24.01;68.83;99974.81;1750636;80;26087;-66
2021/07/15 05:54:39;;;;;;;69.92;65.55;;;;;;;24.10;68.21;99971.58;1712006;82;25852;-66
2021/07/15 05:57:07;;;;;;;69.22;64.55;;;;;;;24.15;67.63;99961.45;1696907;82;27365;-67
2021/07/15 05:59:34;;;;;;;69.50;65.30;;;;;;;24.21;67.53;99963.95;1698948;82;25887;-67
2021/07/15 06:02:02;;;;;;;72.87;68.35;;;;;;;24.23;67.34;99962.96;1733856;81;25872;-67
2021/07/15 06:04:29;;;;;;;68.92;64.67;;;;;;;24.26;67.34;99963.50;1730028;81;26140;-67
2021/07/15 06:06:56;;;;;;;68.70;64.72;;;;;;;24.32;67.54;99961.86;1752618;79;25859;-67
2021/07/15 06:09:22;;;;;;;68.78;64.72;;;;;;;24.36;67.53;99960.44;1726934;81;27365;-67
2021/07/15 06:11:49;;;;;;;70.55;66.02;;;;;;;24.43;67.79;99947.34;1722100;81;25850;-67
2021/07/15 06:14:15;;;;;;;70.78;66.37;;;;;;;24.55;68.25;99931.42;1740107;80;25759;-66
2021/07/15 06:16:42;;;;;;;70.62;66.45;;;;;;;24.68;67.71;99913.70;1719974;81;26003;-67
2021/07/15 06:19:08;;;;;;;68.55;64.47;;;;;;;24.80;67.50;99909.00;1713968;81;25871;-67
2021/07/15 06:21:34;;;;;;;68.52;64.30;;;;;;;24.93;67.14;99905.09;1716678;81;27427;-67
2021/07/15 06:24:00;;;;;;;69.62;65.30;;;;;;;25.07;67.12;99899.33;1751453;80;25352;-67
2021/07/15 06:26:27;;;;;;;68.30;64.03;;;;;;;25.22;66.12;99892.22;1722774;81;25782;-67
2021/07/15 06:28:54;;;;;;;68.78;64.45;;;;;;;25.34;65.82;99886.89;1722353;81;28085;-68
2021/07/15 06:31:21;;;;;;;69.07;64.65;;;;;;;25.46;65.09;99888.28;1751965;80;25820;-68
2021/07/15 06:33:47;;;;;;;67.53;63.08;;;;;;;25.60;64.83;99883.11;1725442;81;27280;-67
2021/07/15 06:36:14;;;;;;;67.80;63.70;;;;;;;25.76;64.71;99876.11;1738208;80;25975;-68
2021/07/15 06:38:40;;;;;;;68.60;64.22;;;;;;;25.94;64.35;99884.11;1715367;81;25951;-67
2021/07/15 06:41:10;;;;;;;68.52;64.22;;;;;;;26.14;64.46;99882.78;1734133;81;26685;-67
2021/07/15 06:43:41;;;;;;;68.02;63.87;;;;;;;26.31;64.07;99890.56;1745514;80;25851;-68
2021/07/15 06:46:09;;;;;;;67.87;63.58;;;;;;;26.51;63.64;99886.37;1755702;79;27373;-67
2021/07/15 06:48:35;;;;;;;68.17;63.95;;;;;;;26.69;62.77;99895.13;1720008;81;25805;-66
2021/07/15 06:51:03;;;;;;;68.52;63.98;;;;;;;26.87;62.76;99899.50;1761508;79;26634;-66
2021/07/15 06:53:29;;;;;;;66.07;61.92;;;;;;;27.05;62.26;99901.27;1766249;80;26019;-66
2021/07/15 06:55:58;;;;;;;66.67;62.70;;;;;;;27.23;61.68;99902.87;1722415;81;25814;-66
2021/07/15 06:58:28;;;;;;;65.32;60.98;;;;;;;27.46;61.75;99913.04;1716578;81;27379;-66
2021/07/15 07:00:56;;;;;;;68.62;64.82;;;;;;;27.65;61.11;99908.60;1708059;82;26966;-66
2021/07/15 07:03:24;;;;;;;67.37;62.95;;;;;;;27.88;61.41;99912.56;1744107;79;25739;-66
2021/07/15 07:05:52;;;;;;;66.02;61.85;;;;;;;28.10;60.53;99911.41;1759255;79;26271;-66
2021/07/15 07:08:19;;;;;;;64.30;60.78;;;;;;;28.28;59.68;99910.13;1731872;81;25900;-68
2021/07/15 07:10:45;;;;;;;65.12;60.85;;;;;;;28.46;59.17;99906.23;1759866;80;27407;-68
2021/07/15 07:13:12;;;;;;;66.45;62.50;;;;;;;28.63;58.69;99911.14;1752282;80;25817;-68
2021/07/15 07:15:40;;;;;;;67.70;63.15;;;;;;;28.86;58.72;99910.66;1734136;80;25875;-67
2021/07/15 07:18:08;;;;;;;64.73;60.33;;;;;;;29.04;57.37;99901.15;1743799;80;26173;-68
2021/07/15 07:20:35;;;;;;;66.47;62.45;;;;;;;29.20;56.76;99902.28;1759096;79;25620;-68
2021/07/15 07:23:13;;;;;;;67.72;63.78;;;;;;;29.35;56.33;99906.79;1766276;80;27900;-68
2021/07/15 07:25:40;;;;;;;66.00;61.90;;;;;;;29.49;55.55;99912.50;1757717;79;25469;-68
2021/07/15 07:28:07;;;;;;;14.25;3.95;;;;;;;29.64;55.31;99905.84;1701964;82;25921;-68
2021/07/15 07:30:34;;;;;;;64.67;60.25;;;;;;;29.77;54.56;99907.39;1714782;81;26101;-68
2021/07/15 07:33:01;;;;;;;63.92;59.83;;;;;;;29.92;54.71;99901.34;1721004;80;25793;-68
2021/07/15 07:35:29;;;;;;;64.70;60.70;;;;;;;30.15;54.62;99902.30;1722901;81;27901;-68
2021/07/15 07:37:56;;;;;;;63.23;59.42;;;;;;;30.41;54.41;99893.02;1690227;82;25960;-68
2021/07/15 07:40:23;;;;;;;64.32;59.93;;;;;;;30.67;53.76;99890.86;1702147;81;25723;-68
2021/07/15 07:42:49;;;;;;;64.00;60.23;;;;;;;30.86;53.06;99888.92;1723175;81;28059;-69
2021/07/15 07:45:16;;;;;;;63.90;59.70;;;;;;;30.99;52.79;99888.84;1722711;81;25884;-73
2021/07/15 07:47:44;;;;;;;64.07;60.20;;;;;;;31.15;52.22;99894.17;1727806;80;27918;-75
2021/07/15 07:50:13;;;;;;;64.92;61.15;;;;;;;31.30;51.43;99892.98;1745933;80;25980;-70
2021/07/15 07:52:43;;;;;;;64.90;60.75;;;;;;;31.41;51.12;99894.70;1702037;82;25965;-70
2021/07/15 07:55:12;;;;;;;62.90;59.30;;;;;;;31.61;51.47;99892.91;1754791;80;26591;-69
2021/07/15 07:57:38;;;;;;;64.10;59.83;;;;;;;31.78;50.16;99884.99;1721017;81;26542;-69
2021/07/15 08:00:12;;;;;;;63.83;59.83;;;;;;;31.94;50.36;99885.92;1722158;81;28052;-69
2021/07/15 08:02:47;;;;;;;63.58;59.53;;;;;;;32.17;49.99;99881.12;1716455;81;25880;-74
2021/07/15 08:05:19;;;;;;;63.87;60.28;;;;;;;32.44;49.96;99870.33;1753505;80;25996;-73
2021/07/15 08:07:46;;;;;;;62.62;58.90;;;;;;;32.67;48.92;99878.06;1725961;81;25937;-73
2021/07/15 08:10:15;;;;;;;63.42;59.48;;;;;;;32.85;47.61;99876.46;1755513;80;25861;-73
2021/07/15 08:12:42;;;;;;;61.13;57.43;;;;;;;32.95;46.53;99870.97;1726011;81;27315;-73
2021/07/15 08:15:12;;;;;;;60.88;57.48;;;;;;;33.07;46.89;99874.80;1705475;82;25694;-74
2021/07/15 08:17:40;;;;;;;63.83;59.93;;;;;;;33.22;46.40;99879.08;1753114;79;25852;-71
2021/07/15 08:20:10;;;;;;;63.93;60.23;;;;;;;33.42;46.23;99879.89;1741950;80;25973;-70
2021/07/15 08:22:37;;;;;;;62.53;58.63;;;;;;;33.59;46.26;99881.02;1719174;81;26529;-69
2021/07/15 08:25:06;;;;;;;63.87;60.00;;;;;;;33.75;45.73;99877.05;1756289;79;27352;-65
2021/07/15 08:27:33;;;;;;;62.45;58.92;;;;;;;33.91;45.60;99887.03;1722233;81;25894;-65
2021/07/15 08:29:59;;;;;;;63.25;59.20;;;;;;;34.13;45.48;99903.51;1751115;80;25709;-66
2021/07/15 08:32:26;;;;;;;62.20;58.52;;;;;;;34.37;44.82;99906.89;1716360;82;28055;-66
2021/07/15 08:34:52;;;;;;;62.30;58.65;;;;;;;34.66;43.99;99922.19;1724386;81;25866;-66
2021/07/15 08:37:19;;;;;;;63.17;58.85;;;;;;;34.87;44.08;99927.27;1757196;80;27354;-66
2021/07/15 08:39:47;;;;;;;59.38;56.05;;;;;;;35.05;43.22;99936.88;1720256;81;25839;-67
2021/07/15 08:42:14;;;;;;;61.53;58.00;;;;;;;35.11;42.49;99938.36;1710374;80;25841;-67
2021/07/15 08:44:41;;;;;;;60.70;56.92;;;;;;;35.01;41.51;99947.55;1754729;79;26591;-67
2021/07/15 08:47:09;;;;;;;6.22;3.83;;;;;;;34.52;41.31;99971.48;1704147;81;25834;-67
2021/07/15 08:49:38;;;;;;;8.60;4.42;;;;;;;34.52;41.31;99971.48;1718025;80;27318;-68
2021/07/15 08:52:05;;;;;;;;;;;;;;;34.29;41.36;99977.30;1716925;81;26586;-66
2021/07/15 08:54:37;;;;;;;9.90;3.65;;;;;;;34.13;40.96;99982.07;1718127;81;25775;-66
2021/07/15 08:57:00;;;;;;;7.92;3.58;;;;;;;34.14;41.77;100019.31;1725192;81;25929;-67
2021/07/15 08:59:27;;;;;;;11.03;3.75;;;;;;;33.76;41.94;99992.14;1734063;80;25913;-67
2021/07/15 09:01:55;;;;;;;13.60;3.92;;;;;;;33.60;42.36;100002.36;1731178;81;27287;-68
2021/07/15 09:04:23;;;;;;;15.90;8.70;;;;;;;33.40;42.69;100004.33;1730636;80;26632;-68
2021/07/15 09:06:51;;;;;;;12.60;4.60;;;;;;;33.17;43.09;100006.61;1728739;81;25849;-68
2021/07/15 09:09:18;;;;;;;61.85;58.00;;;;;;;33.03;43.65;100010.83;1714716;81;26084;-68
2021/07/15 09:11:45;;;;;;;63.48;59.40;;;;;;;33.01;43.82;100009.73;1735637;80;25844;-67
2021/07/15 09:14:18;;;;;;;61.10;57.55;;;;;;;32.97;43.49;100014.73;1718505;81;27250;-68
2021/07/15 09:16:52;;;;;;;64.42;60.33;;;;;;;33.18;44.85;100005.97;1720247;81;25996;-66
2021/07/15 09:19:25;;;;;;;64.25;59.93;;;;;;;33.45;43.40;100013.48;1708870;82;25789;-67
2021/07/15 09:21:53;;;;;;;60.05;56.53;;;;;;;33.54;43.13;100025.28;1693782;83;26735;-68
2021/07/15 09:24:40;;;;;;;60.87;56.93;;;;;;;33.73;43.68;100018.36;1706631;82;25905;-69
2021/07/15 09:27:23;;;;;;;60.33;56.92;;;;;;;34.18;42.32;100025.53;1730322;80;27372;-67
2021/07/15 09:30:13;;;;;;;61.68;57.80;;;;;;;34.08;41.52;100026.22;1742214;80;26137;-68
2021/07/15 09:32:59;;;;;;;63.17;59.30;;;;;;;34.05;41.92;100020.16;1727572;80;25949;-67
2021/07/15 09:35:35;;;;;;;64.40;60.23;;;;;;;34.22;42.00;100015.72;1713052;81;26629;-70
2021/07/15 09:38:22;;;;;;;60.45;56.30;;;;;;;34.46;41.09;100019.72;1720848;81;26434;-69
2021/07/15 09:41:00;;;;;;;62.65;58.85;;;;;;;34.27;40.50;100035.30;1716466;81;27847;-76
2021/07/15 09:43:33;;;;;;;61.48;57.30;;;;;;;34.19;41.84;100032.08;1735272;81;25892;-72
2021/07/15 09:46:13;;;;;;;62.67;58.90;;;;;;;34.55;41.79;100043.52;1720659;81;25827;-69
2021/07/15 09:48:46;;;;;;;61.73;58.25;;;;;;;34.93;41.88;100043.32;1704491;81;26102;-70
2021/07/15 09:51:15;;;;;;;61.65;58.17;;;;;;;35.11;40.42;100049.35;1695816;82;25705;-70
2021/07/15 09:53:42;;;;;;;63.02;58.78;;;;;;;35.15;40.71;100045.73;1747767;80;27367;-70
2021/07/15 09:56:18;;;;;;;59.70;55.92;;;;;;;35.04;40.60;100058.95;1872165;76;25641;-70
2021/07/15 09:58:49;;;;;;;;;;;;;;;34.81;40.86;100057.03;1774330;79;25740;-69
2021/07/15 10:01:20;;;;;;;60.28;56.55;;;;;;;34.98;41.32;100060.91;1813370;78;27461;-70
2021/07/15 10:03:54;;;;;;;61.37;57.45;;;;;;;35.15;41.45;100060.55;1760989;79;25949;-70
2021/07/15 10:06:23;;;;;;;61.58;57.73;;;;;;;35.48;41.75;100064.41;1770356;79;25733;-70
2021/07/15 10:08:53;;;;;;;;;;;;;;;35.85;40.53;100071.00;1789136;80;25888;-76
2021/07/15 10:11:30;;;;;;;61.98;58.08;;;;;;;36.00;38.37;100064.67;1767604;79;25784;-76
2021/07/15 10:14:09;;;;;;;61.63;57.50;;;;;;;35.84;38.06;100067.42;1805417;78;27471;-72
2021/07/15 10:16:42;;;;;;;65.72;61.80;;;;;;;35.80;37.79;100068.88;1792788;78;25648;-72
2021/07/15 10:19:21;;;;;;;61.15;57.03;;;;;;;35.67;37.78;100079.01;1760636;79;25328;-72
2021/07/15 10:22:10;;;;;;;62.33;58.63;;;;;;;35.75;37.12;100084.41;1786260;78;25672;-74
2021/07/15 10:24:38;;;;;;;61.50;57.48;;;;;;;35.36;35.52;100095.80;1760617;79;25792;-73
2021/07/15 10:27:11;;;;;;;62.45;58.92;;;;;;;34.65;36.00;100101.75;1775287;79;28508;-72
2021/07/15 10:29:40;;;;;;;62.98;58.90;;;;;;;34.02;36.17;100113.69;1764286;80;25705;-71
2021/07/15 10:32:09;;;;;;;65.52;61.05;;;;;;;33.33;37.25;100114.73;1797809;78;26550;-72
2021/07/15 10:34:38;;;;;;;65.67;61.70;;;;;;;32.84;38.30;100118.52;1744354;80;25776;-73
2021/07/15 10:37:05;;;;;;;64.67;60.20;;;;;;;32.47;39.28;100117.08;1759074;80;26396;-73
2021/07/15 10:39:33;;;;;;;64.10;59.85;;;;;;;32.18;40.31;100109.88;1797574;78;28185;-74
2021/07/15 10:42:01;;;;;;;67.80;63.43;;;;;;;32.00;40.90;100101.58;1788399;78;25778;-72
2021/07/15 10:44:28;;;;;;;66.85;62.83;;;;;;;32.03;41.66;100104.09;1757743;79;25695;-73
2021/07/15 10:46:59;;;;;;;62.85;58.90;;;;;;;32.02;41.70;100107.48;1808267;78;26351;-74
2021/07/15 10:49:26;;;;;;;70.60;66.17;;;;;;;32.23;41.98;100106.47;1799367;78;26356;-73
2021/07/15 10:51:56;;;;;;;63.48;59.65;;;;;;;32.44;41.38;100101.20;1786504;78;28080;-73
2021/07/15 10:54:24;;;;;;;64.42;60.05;;;;;;;32.55;41.65;100092.51;1761705;79;26191;-73
2021/07/15 10:56:53;;;;;;;73.72;68.90;;;;;;;32.79;40.45;100093.31;1803189;78;25839;-73
2021/07/15 10:59:29;;;;;;;64.53;60.15;;;;;;;32.79;39.39;100098.91;1772131;79;25789;-73
2021/07/15 11:02:01;;;;;;;64.27;60.15;;;;;;;32.82;39.56;100099.39;1770763;79;25746;-74
2021/07/15 11:04:41;;;;;;;69.50;64.82;;;;;;;32.90;39.71;100087.25;1768293;80;28406;-74
2021/07/15 11:07:31;;;;;;;65.37;61.68;;;;;;;33.26;39.66;100078.65;1765968;79;25826;-75
2021/07/15 11:10:22;;;;;;;65.03;60.70;;;;;;;33.56;38.91;100068.42;1763711;79;26434;-74
2021/07/15 11:13:04;;;;;;;66.95;62.50;;;;;;;33.75;38.99;100057.92;1776309;78;25748;-72
2021/07/15 11:15:55;;;;;;;41.53;38.73;;;;;;;34.17;38.48;100063.26;1765311;79;25707;-71
2021/07/15 11:18:48;;;;;;;14.20;5.35;;;;;;;34.58;38.66;100063.59;1784093;78;27428;-71
2021/07/15 11:21:30;;;;;;;44.30;40.67;;;;;;;34.95;38.78;100061.87;1772718;79;25769;-71
2021/07/15 11:24:11;;;;;;;63.87;59.42;;;;;;;35.49;38.31;100055.49;1770345;80;25696;-72
2021/07/15 11:26:41;;;;;;;66.60;62.00;;;;;;;35.85;37.41;100052.70;1765143;79;25780;-71
2021/07/15 11:29:09;;;;;;;25.60;23.47;;;;;;;35.97;36.92;100057.22;1764450;79;25740;-72
2021/07/15 11:31:46;;;;;;;15.45;6.08;;;;;;;35.94;36.17;100062.41;1799426;78;28425;-72
2021/07/15 11:34:40;;;;;;;18.70;6.00;;;;;;;35.79;36.52;100060.28;1795574;78;25630;-72
2021/07/15 11:37:35;;;;;;;13.03;5.62;;;;;;;35.62;36.24;100060.02;1768531;80;25963;-72
2021/07/15 11:40:08;;;;;;;11.78;5.00;;;;;;;35.35;36.15;100062.70;1773325;79;25767;-73
2021/07/15 11:42:39;;;;;;;11.55;5.10;;;;;;;35.07;36.32;100053.00;1768611;80;25624;-71
2021/07/15 11:45:12;;;;;;;17.57;6.75;;;;;;;34.85;36.40;100043.55;1774211;79;27989;-72
2021/07/15 11:47:51;;;;;;;15.80;6.28;;;;;;;34.67;36.63;100043.86;1774123;79;25815;-71
2021/07/15 11:50:38;;;;;;;12.18;4.33;;;;;;;34.56;37.19;100035.98;1787263;79;26307;-72
2021/07/15 11:53:23;;;;;;;12.53;4.53;;;;;;;34.41;36.76;100038.79;1760942;79;25649;-72
2021/07/15 11:55:55;;;;;;;11.45;4.80;;;;;;;34.22;37.04;100035.97;1759593;79;25766;-73
2021/07/15 11:58:47;;;;;;;9.98;4.10;;;;;;;34.06;36.76;100029.51;1770713;79;28105;-73
2021/07/15 12:01:24;;;;;;;12.55;3.95;;;;;;;33.95;36.94;100036.30;1775261;79;25722;-73
2021/07/15 12:04:02;;;;;;;10.15;4.28;;;;;;;33.95;36.94;100036.30;1774218;79;25801;-73
2021/07/15 12:06:30;;;;;;;;;;;;;;;33.59;36.40;100033.04;1742036;80;25734;-73
2021/07/15 12:09:06;;;;;;;10.05;4.47;;;;;;;33.57;38.18;100025.73;1768053;79;25727;-73
2021/07/15 12:11:38;;;;;;;7.80;4.25;;;;;;;33.91;38.65;100012.48;1773486;79;27473;-73
2021/07/15 12:14:06;;;;;;;11.15;4.62;;;;;;;34.25;38.15;100020.98;1770713;79;25639;-72
2021/07/15 12:16:37;;;;;;;9.13;4.62;;;;;;;34.49;37.92;100018.12;1773410;79;35417;-71
2021/07/15 12:19:09;;;;;;;61.25;57.40;;;;;;;34.68;37.86;100022.92;1774904;79;25590;-71
2021/07/15 12:21:38;;;;;;;60.92;57.00;;;;;;;34.70;37.11;100023.25;1772250;80;25708;-71
2021/07/15 12:24:17;;;;;;;61.92;58.28;;;;;;;34.74;37.27;100017.46;1770286;80;27491;-71
2021/07/15 12:26:44;;;;;;;59.25;55.85;;;;;;;34.95;37.61;100021.89;1772910;79;25651;-71
2021/07/15 12:29:14;;;;;;;62.70;58.77;;;;;;;35.28;37.53;100020.14;1773954;79;25775;-71
2021/07/15 12:31:41;;;;;;;59.63;55.75;;;;;;;35.44;36.98;100017.47;1772462;79;25802;-78
2021/07/15 12:34:10;;;;;;;62.38;58.10;;;;;;;35.45;36.33;100016.19;1776067;79;25293;-79
2021/07/15 12:36:39;;;;;;;62.88;58.78;;;;;;;35.42;36.73;100009.52;1772535;80;27468;-69
2021/07/15 12:39:12;;;;;;;61.10;57.25;;;;;;;35.39;36.68;100007.67;1774671;79;25740;-69
2021/07/15 12:41:44;;;;;;;61.85;57.93;;;;;;;35.29;36.70;100008.42;1754693;80;25707;-71
2021/07/15 12:44:14;;;;;;;62.90;58.48;;;;;;;35.34;36.46;100003.52;1757469;81;26356;-71
2021/07/15 12:46:53;;;;;;;59.05;55.55;;;;;;;35.64;36.51;100003.44;1761687;80;25760;-71
2021/07/15 12:49:25;;;;;;;;;;;;;;;36.01;35.47;99991.66;1768060;80;28055;-71
2021/07/15 12:51:57;;;;;;;60.83;57.03;;;;;;;36.44;33.75;99984.86;1764264;80;25773;-71
2021/07/15 12:54:35;;;;;;;59.30;55.67;;;;;;;36.75;34.04;99966.48;1761541;80;25784;-70
2021/07/15 12:57:12;;;;;;;58.55;54.90;;;;;;;37.07;33.43;99959.42;1773647;79;26422;-70
2021/07/15 12:59:44;;;;;;;60.23;56.18;;;;;;;37.31;32.61;99952.69;1780188;79;25945;-70
2021/07/15 13:02:12;;;;;;;59.53;55.48;;;;;;;37.53;32.27;99942.17;1771036;79;28168;-78
2021/07/15 13:04:38;;;;;;;;;;;;;;;37.78;31.88;99937.66;1777973;79;25643;-78
2021/07/15 13:07:09;;;;;;;59.20;54.98;;;;;;;37.98;31.66;99938.11;1776060;79;25755;-78
2021/07/15 13:14:58;;;;;;;59.65;55.98;;;;;;;38.30;32.09;99890.72;1782216;79;27581;-78
2021/07/15 13:17:47;;;;;;;58.65;54.60;;;;;;;38.43;32.03;99883.16;1782139;79;25740;-78
2021/07/15 13:20:19;;;;;;;58.98;55.03;;;;;;;38.52;32.02;99883.54;1777835;79;25763;-78
2021/07/15 13:22:50;;;;;;;59.48;55.67;;;;;;;38.59;32.22;99885.88;1775094;79;26042;-79
2021/07/15 13:25:21;;;;;;;58.15;54.48;;;;;;;38.61;31.56;99892.42;1767053;81;25786;-79
2021/07/15 13:27:49;;;;;;;59.20;55.05;;;;;;;38.63;31.34;99892.02;1794351;78;28043;-79
2021/07/15 13:30:23;;;;;;;57.62;53.87;;;;;;;38.71;31.22;99883.81;1798657;78;26403;-79
2021/07/15 13:32:50;;;;;;;56.95;53.52;;;;;;;38.78;31.24;99868.39;1798699;78;25762;-79
2021/07/15 13:35:21;;;;;;;58.63;54.85;;;;;;;38.83;31.33;99855.65;1798829;78;25766;-79
2021/07/15 13:37:47;;;;;;;24.43;22.48;;;;;;;38.90;31.04;99860.66;1783883;78;25706;-79
2021/07/15 13:40:20;;;;;;;15.18;5.53;;;;;;;38.90;30.94;99862.07;1793434;78;27598;-79
2021/07/15 13:42:47;;;;;;;12.03;5.17;;;;;;;38.86;30.46;99858.86;1790413;78;25855;-79
2021/07/15 13:45:24;;;;;;;9.40;4.80;;;;;;;38.85;30.42;99855.14;1804819;78;25703;-81
2021/07/15 13:47:51;;;;;;;11.78;5.30;;;;;;;38.83;30.21;99850.00;1798768;78;25627;-79
2021/07/15 13:50:27;;;;;;;16.93;5.37;;;;;;;38.84;30.67;99845.11;1792899;78;25746;-80
2021/07/15 13:52:57;;;;;;;11.95;5.33;;;;;;;38.86;29.98;99841.91;1789666;78;27493;-80
2021/07/15 13:55:25;;;;;;;14.47;5.40;;;;;;;38.78;29.84;99833.83;1783578;79;25719;-79
2021/07/15 13:57:55;;;;;;;15.63;5.50;;;;;;;38.75;30.45;99829.20;1805214;78;25695;-80
2021/07/15 14:00:31;;;;;;;13.93;5.17;;;;;;;38.78;31.01;99841.55;1789840;78;25802;-81
2021/07/15 14:03:02;;;;;;;10.50;4.65;;;;;;;38.79;30.79;99846.68;1787743;79;26435;-79
2021/07/15 14:05:39;;;;;;;12.37;5.53;;;;;;;38.70;30.48;99851.83;1796909;78;27506;-80
2021/07/15 14:08:07;;;;;;;8.60;4.95;;;;;;;38.53;30.57;99858.23;1799617;78;25671;-81
2021/07/15 14:10:35;;;;;;;15.93;13.05;;;;;;;38.47;30.61;99865.95;1783584;79;25826;-80
2021/07/15 14:13:05;;;;;;;10.70;5.00;;;;;;;38.45;30.12;99879.17;1789453;78;26319;-80
2021/07/15 14:15:35;;;;;;;13.10;4.92;;;;;;;38.34;29.81;99879.16;1791333;78;25752;-80
2021/07/15 14:18:14;;;;;;;12.13;5.58;;;;;;;38.23;29.91;99883.41;1794807;78;27441;-81
2021/07/15 14:20:51;;;;;;;62.90;58.73;;;;;;;38.13;30.41;99906.88;1799717;78;25763;-81
2021/07/15 14:23:24;;;;;;;63.90;59.13;;;;;;;38.13;30.41;99906.88;1777595;78;25592;-81
2021/07/15 14:25:59;;;;;;;59.88;56.05;;;;;;;38.10;30.16;99912.86;1804239;77;25469;-82
2021/07/15 14:28:27;;;;;;;58.48;54.58;;;;;;;37.92;30.78;99923.20;1799106;78;25812;-83
2021/07/15 14:30:54;;;;;;;60.83;56.83;;;;;;;37.92;30.78;99923.20;1790017;78;27521;-81
2021/07/15 14:33:21;;;;;;;60.30;56.55;;;;;;;37.86;30.58;99931.66;1795258;78;25729;-82
2021/07/15 14:35:48;;;;;;;54.83;50.73;;;;;;;37.80;30.45;99939.98;1800936;78;25705;-82
2021/07/15 14:38:18;;;;;;;14.60;5.37;;;;;;;37.79;30.45;99953.32;1789493;78;26275;-82
2021/07/15 14:40:47;;;;;;;13.32;5.25;;;;;;;37.65;30.06;99952.83;1815221;78;25730;-82
2021/07/15 14:43:14;;;;;;;10.58;4.95;;;;;;;37.50;30.43;99957.27;1796633;78;27494;-82
2021/07/15 14:45:42;;;;;;;14.93;8.47;;;;;;;37.36;30.45;99959.00;1789657;78;26368;-82
2021/07/15 14:48:10;;;;;;;61.70;57.45;;;;;;;37.19;30.65;99971.58;1768530;79;25731;-82
2021/07/15 14:50:38;;;;;;;61.88;57.93;;;;;;;36.91;30.77;99969.28;1795474;78;26028;-79
2021/07/15 14:53:05;;;;;;;63.58;59.33;;;;;;;36.65;31.12;99973.53;1767353;80;25713;-82
2021/07/15 14:55:32;;;;;;;61.63;57.80;;;;;;;36.40;31.64;99984.29;1797452;78;28095;-81
2021/07/15 14:57:58;;;;;;;61.73;57.93;;;;;;;36.13;32.06;99991.13;1806415;78;25715;-82
2021/07/15 15:00:25;;;;;;;62.15;57.93;;;;;;;35.84;32.33;99987.85;1797081;78;25709;-82
2021/07/15 15:02:55;;;;;;;65.42;61.37;;;;;;;35.59;32.77;99986.47;1777297;78;25700;-82
2021/07/15 15:05:24;;;;;;;66.37;61.95;;;;;;;35.34;33.37;99995.72;1783028;80;25799;-82
2021/07/15 15:07:53;;;;;;;69.15;64.58;;;;;;;35.13;33.62;99992.83;1784961;78;27492;-81
2021/07/15 15:10:21;;;;;;;66.62;61.80;;;;;;;34.95;34.12;99986.78;1771844;80;25843;-81
2021/07/15 15:12:48;;;;;;;63.02;58.52;;;;;;;34.77;34.45;99994.80;1796887;78;25334;-82
2021/07/15 15:15:15;;;;;;;65.80;61.35;;;;;;;34.59;34.51;99991.50;1771293;80;25810;-82
2021/07/15 15:17:41;;;;;;;63.75;59.30;;;;;;;34.37;34.93;99984.08;1806071;78;25720;-82
2021/07/15 15:20:12;;;;;;;65.52;61.08;;;;;;;34.16;35.18;99979.71;1796255;78;28232;-82
2021/07/15 15:22:40;;;;;;;68.62;64.03;;;;;;;33.97;35.42;99979.69;1770854;80;25750;-71
2021/07/15 15:25:10;;;;;;;66.07;61.48;;;;;;;33.81;35.75;99979.51;1771781;80;25726;-71
2021/07/15 15:27:39;;;;;;;65.17;60.80;;;;;;;33.69;35.99;99981.30;1795218;78;25851;-72
2021/07/15 15:30:08;;;;;;;65.72;61.80;;;;;;;33.56;36.36;99988.52;1796091;78;25876;-72
2021/07/15 15:32:38;;;;;;;65.20;60.70;;;;;;;33.45;36.58;99992.47;1770698;80;27470;-70
2021/07/15 15:35:08;;;;;;;66.10;61.65;;;;;;;33.34;36.60;99993.59;1767056;80;26403;-71
2021/07/15 15:37:36;;;;;;;68.62;64.30;;;;;;;33.22;37.00;99998.16;1774808;80;25685;-70
2021/07/15 15:40:06;;;;;;;65.40;61.13;;;;;;;33.11;37.47;99992.41;1790934;78;25784;-71
2021/07/15 15:42:32;;;;;;;64.22;60.03;;;;;;;33.05;37.81;99989.32;1762209;78;26543;-71
2021/07/15 15:44:59;;;;;;;67.05;62.10;;;;;;;32.96;38.09;99994.33;1767821;80;28528;-80
2021/07/15 15:47:26;;;;;;;63.80;59.63;;;;;;;32.81;38.51;100008.84;1800705;78;25738;-81
2021/07/15 15:49:53;;;;;;;64.37;60.38;;;;;;;32.63;38.98;100004.06;1806285;78;25669;-79
2021/07/15 15:52:19;;;;;;;64.58;60.35;;;;;;;32.52;39.55;100003.09;1802210;78;25680;-81
2021/07/15 15:54:49;;;;;;;66.72;62.33;;;;;;;32.42;39.81;99995.95;1804994;78;25279;-79
2021/07/15 15:57:16;;;;;;;65.90;61.77;;;;;;;32.31;40.34;99989.44;1766799;79;27475;-79
2021/07/15 15:59:43;;;;;;;65.25;61.23;;;;;;;32.25;40.66;99989.90;1800583;79;25958;-79
2021/07/15 16:02:11;;;;;;;64.50;60.08;;;;;;;32.16;40.83;99983.08;1792557;79;25708;-80
2021/07/15 16:04:37;;;;;;;67.45;62.67;;;;;;;32.06;40.98;99987.72;1770757;79;26426;-81
2021/07/15 16:07:04;;;;;;;66.25;62.08;;;;;;;31.95;41.15;99990.95;1797543;78;25695;-80
2021/07/15 16:09:31;;;;;;;65.57;61.55;;;;;;;31.85;41.44;99984.56;1787526;78;27599;-78
2021/07/15 16:11:58;;;;;;;65.97;62.00;;;;;;;31.73;41.51;99993.87;1815096;78;25275;-79
2021/07/15 16:14:26;;;;;;;65.97;61.65;;;;;;;31.64;41.85;99990.44;1786279;80;25768;-80
2021/07/15 16:16:54;;;;;;;65.90;61.60;;;;;;;31.55;42.13;99980.61;1770465;79;26036;-79
2021/07/15 16:19:22;;;;;;;67.42;62.65;;;;;;;31.51;42.58;99975.80;1797910;79;25894;-79
2021/07/15 16:21:51;;;;;;;68.45;63.23;;;;;;;31.48;42.67;99964.88;1738489;80;27475;-79
2021/07/15 16:24:17;;;;;;;66.35;61.95;;;;;;;31.43;42.94;99959.30;1800563;78;25692;-80
2021/07/15 16:26:44;;;;;;;66.30;62.23;;;;;;;31.40;43.26;99960.84;1794079;78;25704;-78
2021/07/15 16:29:10;;;;;;;66.53;61.95;;;;;;;31.36;43.19;99960.20;1796229;78;26012;-79
2021/07/15 16:31:37;;;;;;;67.37;63.00;;;;;;;31.31;43.30;99950.39;1763882;79;25885;-80
2021/07/15 16:34:07;;;;;;;66.97;62.58;;;;;;;31.28;43.48;99956.30;1758655;80;27666;-80
2021/07/15 16:36:32;;;;;;;;;;;;;;;31.23;43.62;99945.73;1806724;78;25734;-78
2021/07/15 16:38:59;;;;;;;65.87;61.37;;;;;;;31.18;43.70;99942.14;1777468;79;25755;-77
2021/07/15 16:41:26;;;;;;;68.47;63.87;;;;;;;31.12;44.00;99938.38;1791881;78;26352;-79
2021/07/15 16:43:53;;;;;;;69.80;64.70;;;;;;;31.10;44.12;99929.69;1800429;78;25742;-83
2021/07/15 16:46:20;;;;;;;66.70;62.45;;;;;;;31.08;43.99;99923.80;1760344;79;28071;-65
2021/07/15 16:48:46;;;;;;;64.65;60.67;;;;;;;31.03;44.08;99927.95;1807938;78;25706;-65
2021/07/15 16:51:13;;;;;;;67.78;63.63;;;;;;;30.94;44.06;99920.95;1791405;78;25671;-65
2021/07/15 16:53:43;;;;;;;68.87;64.32;;;;;;;30.83;44.26;99924.73;1762084;80;27684;-66
2021/07/15 16:56:10;;;;;;;67.62;62.75;;;;;;;30.74;44.33;99921.28;1771137;79;26423;-65
2021/07/15 16:58:37;;;;;;;67.92;63.30;;;;;;;30.65;44.55;99905.27;1770052;81;29683;-66
2021/07/15 17:01:04;;;;;;;67.65;63.28;;;;;;;30.55;44.57;99899.48;1770114;81;26432;-65
2021/07/15 17:03:31;;;;;;;70.42;65.28;;;;;;;30.45;44.77;99897.87;1760246;81;25773;-66
2021/07/15 17:05:57;;;;;;;67.78;63.23;;;;;;;30.38;44.99;99906.48;1770147;81;25736;-65
2021/07/15 17:08:24;;;;;;;67.42;62.88;;;;;;;30.28;45.03;99902.84;1769716;81;25819;-66
2021/07/15 17:10:51;;;;;;;68.95;64.42;;;;;;;30.22;45.05;99911.63;1769473;81;28204;-67